sensor_id;sensor_type;location;lat;lon;timestamp;temperature;humidity
51811;DHT22;52468;40.116;18.296;2023-07-09T00:02:23;23.30;72.60
51811;DHT22;52468;40.116;18.296;2023-07-09T00:04:51;23.20;72.90
51811;DHT22;52468;40.116;18.296;2023-07-09T00:07:28;23.20;72.90
51811;DHT22;52468;40.116;18.296;2023-07-09T00:09:57;23.20;72.80
51811;DHT22;52468;40.116;18.296;2023-07-09T00:12:25;23.20;72.70
51811;DHT22;52468;40.116;18.296;2023-07-09T00:14:53;23.10;72.90
51811;DHT22;52468;40.116;18.296;2023-07-09T00:17:30;23.10;73.00
51811;DHT22;52468;40.116;18.296;2023-07-09T00:19:59;23.00;72.70
51811;DHT22;52468;40.116;18.296;2023-07-09T00:22:27;22.90;72.80
51811;DHT22;52468;40.116;18.296;2023-07-09T00:24:55;22.80;72.70
51811;DHT22;52468;40.116;18.296;2023-07-09T00:27:28;22.70;72.70
51811;DHT22;52468;40.116;18.296;2023-07-09T00:29:59;22.60;72.70
51811;DHT22;52468;40.116;18.296;2023-07-09T00:32:26;22.60;73.00
51811;DHT22;52468;40.116;18.296;2023-07-09T00:34:56;22.50;73.20
51811;DHT22;52468;40.116;18.296;2023-07-09T00:37:24;22.50;73.40
51811;DHT22;52468;40.116;18.296;2023-07-09T00:39:56;22.50;73.50
51811;DHT22;52468;40.116;18.296;2023-07-09T00:42:24;22.60;73.60
51811;DHT22;52468;40.116;18.296;2023-07-09T00:44:54;22.50;73.70
51811;DHT22;52468;40.116;18.296;2023-07-09T00:50:39;22.50;73.80
51811;DHT22;52468;40.116;18.296;2023-07-09T00:53:33;22.50;73.80
51811;DHT22;52468;40.116;18.296;2023-07-09T01:00:13;22.50;74.10
51811;DHT22;52468;40.116;18.296;2023-07-09T01:02:46;22.50;74.40
51811;DHT22;52468;40.116;18.296;2023-07-09T01:05:17;22.50;74.40
51811;DHT22;52468;40.116;18.296;2023-07-09T01:07:47;22.50;74.30
51811;DHT22;52468;40.116;18.296;2023-07-09T01:10:17;22.50;74.40
51811;DHT22;52468;40.116;18.296;2023-07-09T01:12:47;22.50;74.10
51811;DHT22;52468;40.116;18.296;2023-07-09T01:15:16;22.50;74.40
51811;DHT22;52468;40.116;18.296;2023-07-09T01:17:44;22.40;74.50
51811;DHT22;52468;40.116;18.296;2023-07-09T01:20:18;22.30;74.70
51811;DHT22;52468;40.116;18.296;2023-07-09T01:22:50;22.30;74.50
51811;DHT22;52468;40.116;18.296;2023-07-09T01:25:18;22.40;74.40
51811;DHT22;52468;40.116;18.296;2023-07-09T01:27:47;22.30;74.70
51811;DHT22;52468;40.116;18.296;2023-07-09T01:30:20;22.20;74.90
51811;DHT22;52468;40.116;18.296;2023-07-09T01:32:56;22.30;75.10
51811;DHT22;52468;40.116;18.296;2023-07-09T01:35:24;22.20;75.30
51811;DHT22;52468;40.116;18.296;2023-07-09T01:37:53;22.20;75.30
51811;DHT22;52468;40.116;18.296;2023-07-09T01:40:24;22.20;75.40
51811;DHT22;52468;40.116;18.296;2023-07-09T01:42:57;22.20;75.30
51811;DHT22;52468;40.116;18.296;2023-07-09T01:45:27;22.20;75.30
51811;DHT22;52468;40.116;18.296;2023-07-09T01:47:56;22.20;75.50
51811;DHT22;52468;40.116;18.296;2023-07-09T01:50:24;22.10;75.80
51811;DHT22;52468;40.116;18.296;2023-07-09T01:52:57;22.10;75.90
51811;DHT22;52468;40.116;18.296;2023-07-09T01:55:27;22.00;76.10
51811;DHT22;52468;40.116;18.296;2023-07-09T01:57:58;22.10;76.10
51811;DHT22;52468;40.116;18.296;2023-07-09T02:00:26;22.00;76.10
51811;DHT22;52468;40.116;18.296;2023-07-09T02:02:54;22.00;76.10
51811;DHT22;52468;40.116;18.296;2023-07-09T02:05:22;22.00;76.20
51811;DHT22;52468;40.116;18.296;2023-07-09T02:07:52;22.00;76.50
51811;DHT22;52468;40.116;18.296;2023-07-09T02:10:22;22.00;76.90
51811;DHT22;52468;40.116;18.296;2023-07-09T02:12:50;22.00;76.90
51811;DHT22;52468;40.116;18.296;2023-07-09T02:15:18;21.90;76.90
51811;DHT22;52468;40.116;18.296;2023-07-09T02:17:46;21.90;77.30
51811;DHT22;52468;40.116;18.296;2023-07-09T02:20:14;21.90;77.50
51811;DHT22;52468;40.116;18.296;2023-07-09T02:22:43;21.80;77.60
51811;DHT22;52468;40.116;18.296;2023-07-09T02:25:12;21.90;77.60
51811;DHT22;52468;40.116;18.296;2023-07-09T02:27:39;22.00;77.60
51811;DHT22;52468;40.116;18.296;2023-07-09T02:30:08;21.90;77.50
51811;DHT22;52468;40.116;18.296;2023-07-09T02:32:36;21.80;77.60
51811;DHT22;52468;40.116;18.296;2023-07-09T02:35:04;21.90;77.70
51811;DHT22;52468;40.116;18.296;2023-07-09T02:37:33;21.90;77.50
51811;DHT22;52468;40.116;18.296;2023-07-09T02:40:01;21.80;77.40
51811;DHT22;52468;40.116;18.296;2023-07-09T02:42:29;21.80;77.40
51811;DHT22;52468;40.116;18.296;2023-07-09T02:44:58;21.70;77.40
51811;DHT22;52468;40.116;18.296;2023-07-09T02:47:28;21.70;77.40
51811;DHT22;52468;40.116;18.296;2023-07-09T02:49:58;21.60;77.60
51811;DHT22;52468;40.116;18.296;2023-07-09T02:52:26;21.60;77.70
51811;DHT22;52468;40.116;18.296;2023-07-09T02:54:55;21.60;77.60
51811;DHT22;52468;40.116;18.296;2023-07-09T02:57:23;21.60;77.60
51811;DHT22;52468;40.116;18.296;2023-07-09T02:59:51;21.60;77.60
51811;DHT22;52468;40.116;18.296;2023-07-09T03:02:19;21.60;77.60
51811;DHT22;52468;40.116;18.296;2023-07-09T03:04:47;21.50;77.90
51811;DHT22;52468;40.116;18.296;2023-07-09T03:07:15;21.50;78.00
51811;DHT22;52468;40.116;18.296;2023-07-09T03:09:43;21.40;78.30
51811;DHT22;52468;40.116;18.296;2023-07-09T03:12:11;21.50;78.30
51811;DHT22;52468;40.116;18.296;2023-07-09T03:14:38;21.50;78.40
51811;DHT22;52468;40.116;18.296;2023-07-09T03:17:06;21.50;78.30
51811;DHT22;52468;40.116;18.296;2023-07-09T03:19:34;21.50;78.40
51811;DHT22;52468;40.116;18.296;2023-07-09T03:22:04;21.50;78.60
51811;DHT22;52468;40.116;18.296;2023-07-09T03:24:31;21.50;78.50
51811;DHT22;52468;40.116;18.296;2023-07-09T03:26:59;21.50;78.70
51811;DHT22;52468;40.116;18.296;2023-07-09T03:29:27;21.50;78.70
51811;DHT22;52468;40.116;18.296;2023-07-09T03:31:55;21.60;78.50
51811;DHT22;52468;40.116;18.296;2023-07-09T03:34:23;21.70;78.40
51811;DHT22;52468;40.116;18.296;2023-07-09T03:36:51;21.70;78.50
51811;DHT22;52468;40.116;18.296;2023-07-09T03:39:19;21.80;78.50
51811;DHT22;52468;40.116;18.296;2023-07-09T03:41:47;22.00;78.50
51811;DHT22;52468;40.116;18.296;2023-07-09T03:44:14;22.00;78.50
51811;DHT22;52468;40.116;18.296;2023-07-09T03:46:44;22.10;78.30
51811;DHT22;52468;40.116;18.296;2023-07-09T03:49:12;22.10;78.20
51811;DHT22;52468;40.116;18.296;2023-07-09T03:51:40;22.10;78.50
51811;DHT22;52468;40.116;18.296;2023-07-09T03:54:08;22.10;78.40
51811;DHT22;52468;40.116;18.296;2023-07-09T03:56:36;22.20;79.00
51811;DHT22;52468;40.116;18.296;2023-07-09T03:59:04;22.40;78.70
51811;DHT22;52468;40.116;18.296;2023-07-09T04:01:32;22.60;77.60
51811;DHT22;52468;40.116;18.296;2023-07-09T04:04:00;22.60;77.20
51811;DHT22;52468;40.116;18.296;2023-07-09T04:06:28;22.80;76.70
51811;DHT22;52468;40.116;18.296;2023-07-09T04:08:56;22.80;76.20
51811;DHT22;52468;40.116;18.296;2023-07-09T04:11:24;23.00;76.00
51811;DHT22;52468;40.116;18.296;2023-07-09T04:13:52;23.00;75.90
51811;DHT22;52468;40.116;18.296;2023-07-09T04:16:20;23.00;75.90
51811;DHT22;52468;40.116;18.296;2023-07-09T04:18:48;23.20;76.10
51811;DHT22;52468;40.116;18.296;2023-07-09T04:21:16;23.40;74.80
51811;DHT22;52468;40.116;18.296;2023-07-09T04:23:44;23.50;75.10
51811;DHT22;52468;40.116;18.296;2023-07-09T04:26:13;23.60;74.50
51811;DHT22;52468;40.116;18.296;2023-07-09T04:28:41;23.70;74.20
51811;DHT22;52468;40.116;18.296;2023-07-09T04:31:09;23.90;73.90
51811;DHT22;52468;40.116;18.296;2023-07-09T04:33:37;24.10;73.70
51811;DHT22;52468;40.116;18.296;2023-07-09T04:36:05;24.30;72.10
51811;DHT22;52468;40.116;18.296;2023-07-09T04:38:33;24.30;71.60
51811;DHT22;52468;40.116;18.296;2023-07-09T04:41:01;24.30;71.70
51811;DHT22;52468;40.116;18.296;2023-07-09T04:43:29;24.30;71.50
51811;DHT22;52468;40.116;18.296;2023-07-09T04:45:56;24.50;71.20
51811;DHT22;52468;40.116;18.296;2023-07-09T04:48:24;24.60;70.90
51811;DHT22;52468;40.116;18.296;2023-07-09T04:50:53;24.80;70.30
51811;DHT22;52468;40.116;18.296;2023-07-09T04:53:21;24.80;69.50
51811;DHT22;52468;40.116;18.296;2023-07-09T04:55:51;24.80;69.60
51811;DHT22;52468;40.116;18.296;2023-07-09T04:58:19;24.80;69.70
51811;DHT22;52468;40.116;18.296;2023-07-09T05:00:47;24.80;69.50
51811;DHT22;52468;40.116;18.296;2023-07-09T05:03:15;25.00;69.10
51811;DHT22;52468;40.116;18.296;2023-07-09T05:05:46;25.10;68.50
51811;DHT22;52468;40.116;18.296;2023-07-09T05:08:14;25.40;67.70
51811;DHT22;52468;40.116;18.296;2023-07-09T05:10:43;25.70;66.70
51811;DHT22;52468;40.116;18.296;2023-07-09T05:13:12;25.80;66.60
51811;DHT22;52468;40.116;18.296;2023-07-09T05:15:42;26.00;66.50
51811;DHT22;52468;40.116;18.296;2023-07-09T05:18:11;26.00;66.30
51811;DHT22;52468;40.116;18.296;2023-07-09T05:20:40;26.10;65.90
51811;DHT22;52468;40.116;18.296;2023-07-09T05:23:09;26.00;66.40
51811;DHT22;52468;40.116;18.296;2023-07-09T05:25:37;26.10;66.40
51811;DHT22;52468;40.116;18.296;2023-07-09T05:28:06;26.20;66.60
51811;DHT22;52468;40.116;18.296;2023-07-09T05:30:33;26.50;65.80
51811;DHT22;52468;40.116;18.296;2023-07-09T05:33:01;26.60;65.20
51811;DHT22;52468;40.116;18.296;2023-07-09T05:35:29;26.80;65.00
51811;DHT22;52468;40.116;18.296;2023-07-09T05:37:57;26.90;64.70
51811;DHT22;52468;40.116;18.296;2023-07-09T05:40:25;27.00;64.30
51811;DHT22;52468;40.116;18.296;2023-07-09T05:42:53;27.00;64.20
51811;DHT22;52468;40.116;18.296;2023-07-09T05:45:21;27.10;63.80
51811;DHT22;52468;40.116;18.296;2023-07-09T05:47:48;27.20;63.70
51811;DHT22;52468;40.116;18.296;2023-07-09T05:50:16;27.40;62.90
51811;DHT22;52468;40.116;18.296;2023-07-09T05:52:44;27.50;62.90
51811;DHT22;52468;40.116;18.296;2023-07-09T05:55:12;27.70;62.50
51811;DHT22;52468;40.116;18.296;2023-07-09T05:57:40;28.00;61.90
51811;DHT22;52468;40.116;18.296;2023-07-09T06:00:08;27.90;61.60
51811;DHT22;52468;40.116;18.296;2023-07-09T06:02:41;28.00;61.40
51811;DHT22;52468;40.116;18.296;2023-07-09T06:05:09;28.20;61.10
51811;DHT22;52468;40.116;18.296;2023-07-09T06:10:09;28.80;59.30
51811;DHT22;52468;40.116;18.296;2023-07-09T06:12:37;28.90;58.50
51811;DHT22;52468;40.116;18.296;2023-07-09T06:15:06;28.90;57.70
51811;DHT22;52468;40.116;18.296;2023-07-09T06:17:34;28.70;57.70
51811;DHT22;52468;40.116;18.296;2023-07-09T06:20:02;28.80;57.80
51811;DHT22;52468;40.116;18.296;2023-07-09T06:22:30;28.90;58.10
51811;DHT22;52468;40.116;18.296;2023-07-09T06:24:58;29.20;56.90
51811;DHT22;52468;40.116;18.296;2023-07-09T06:27:26;29.40;56.70
51811;DHT22;52468;40.116;18.296;2023-07-09T06:29:54;29.60;55.90
51811;DHT22;52468;40.116;18.296;2023-07-09T06:32:22;29.70;53.60
51811;DHT22;52468;40.116;18.296;2023-07-09T06:34:50;29.80;51.90
51811;DHT22;52468;40.116;18.296;2023-07-09T06:37:18;29.80;49.70
51811;DHT22;52468;40.116;18.296;2023-07-09T06:39:46;29.80;48.60
51811;DHT22;52468;40.116;18.296;2023-07-09T06:42:14;29.90;48.40
51811;DHT22;52468;40.116;18.296;2023-07-09T06:44:56;30.00;47.80
51811;DHT22;52468;40.116;18.296;2023-07-09T06:47:24;30.10;47.30
51811;DHT22;52468;40.116;18.296;2023-07-09T06:49:52;30.00;47.40
51811;DHT22;52468;40.116;18.296;2023-07-09T06:52:20;30.00;46.90
51811;DHT22;52468;40.116;18.296;2023-07-09T06:54:48;30.10;46.10
51811;DHT22;52468;40.116;18.296;2023-07-09T06:57:16;30.10;46.00
51811;DHT22;52468;40.116;18.296;2023-07-09T06:59:44;30.30;46.20
51811;DHT22;52468;40.116;18.296;2023-07-09T07:02:12;30.50;46.00
51811;DHT22;52468;40.116;18.296;2023-07-09T07:04:40;30.60;45.90
51811;DHT22;52468;40.116;18.296;2023-07-09T07:07:09;30.60;44.90
51811;DHT22;52468;40.116;18.296;2023-07-09T07:09:37;30.70;44.50
51811;DHT22;52468;40.116;18.296;2023-07-09T07:12:05;30.70;44.40
51811;DHT22;52468;40.116;18.296;2023-07-09T07:14:33;30.90;44.30
51811;DHT22;52468;40.116;18.296;2023-07-09T07:17:01;31.00;44.10
51811;DHT22;52468;40.116;18.296;2023-07-09T07:19:30;31.10;43.90
51811;DHT22;52468;40.116;18.296;2023-07-09T07:21:58;31.20;43.50
51811;DHT22;52468;40.116;18.296;2023-07-09T07:24:25;31.20;43.60
51811;DHT22;52468;40.116;18.296;2023-07-09T07:26:53;31.10;43.30
51811;DHT22;52468;40.116;18.296;2023-07-09T07:29:21;31.10;43.40
51811;DHT22;52468;40.116;18.296;2023-07-09T07:31:49;31.10;42.80
51811;DHT22;52468;40.116;18.296;2023-07-09T07:34:17;31.00;43.70
51811;DHT22;52468;40.116;18.296;2023-07-09T07:36:46;31.00;43.50
51811;DHT22;52468;40.116;18.296;2023-07-09T07:39:14;31.00;43.60
51811;DHT22;52468;40.116;18.296;2023-07-09T07:41:43;31.20;43.50
51811;DHT22;52468;40.116;18.296;2023-07-09T07:44:10;31.40;43.40
51811;DHT22;52468;40.116;18.296;2023-07-09T07:46:38;31.60;42.20
51811;DHT22;52468;40.116;18.296;2023-07-09T07:49:06;31.50;42.30
51811;DHT22;52468;40.116;18.296;2023-07-09T07:51:34;31.70;42.90
51811;DHT22;52468;40.116;18.296;2023-07-09T07:54:02;31.70;43.00
51811;DHT22;52468;40.116;18.296;2023-07-09T07:56:30;31.70;42.50
51811;DHT22;52468;40.116;18.296;2023-07-09T07:58:58;31.80;42.40
51811;DHT22;52468;40.116;18.296;2023-07-09T08:01:25;31.90;41.20
51811;DHT22;52468;40.116;18.296;2023-07-09T08:03:54;32.00;41.10
51811;DHT22;52468;40.116;18.296;2023-07-09T08:06:22;32.00;41.60
51811;DHT22;52468;40.116;18.296;2023-07-09T08:08:50;32.00;41.70
51811;DHT22;52468;40.116;18.296;2023-07-09T08:11:17;32.20;40.90
51811;DHT22;52468;40.116;18.296;2023-07-09T08:13:45;32.20;40.90
51811;DHT22;52468;40.116;18.296;2023-07-09T08:16:13;32.10;40.60
51811;DHT22;52468;40.116;18.296;2023-07-09T08:18:41;32.20;40.50
51811;DHT22;52468;40.116;18.296;2023-07-09T08:21:09;32.30;39.70
51811;DHT22;52468;40.116;18.296;2023-07-09T08:23:37;32.10;40.10
51811;DHT22;52468;40.116;18.296;2023-07-09T08:26:06;32.20;40.10
51811;DHT22;52468;40.116;18.296;2023-07-09T08:28:34;32.50;40.20
51811;DHT22;52468;40.116;18.296;2023-07-09T08:31:03;32.50;39.70
51811;DHT22;52468;40.116;18.296;2023-07-09T08:33:31;32.50;39.90
51811;DHT22;52468;40.116;18.296;2023-07-09T08:35:59;32.70;39.40
51811;DHT22;52468;40.116;18.296;2023-07-09T08:38:27;32.70;39.70
51811;DHT22;52468;40.116;18.296;2023-07-09T08:41:00;33.00;38.90
51811;DHT22;52468;40.116;18.296;2023-07-09T08:48:47;32.80;37.50
51811;DHT22;52468;40.116;18.296;2023-07-09T08:53:56;33.00;37.60
51811;DHT22;52468;40.116;18.296;2023-07-09T08:56:26;33.20;37.50
51811;DHT22;52468;40.116;18.296;2023-07-09T08:58:59;33.20;36.90
51811;DHT22;52468;40.116;18.296;2023-07-09T09:01:35;33.00;36.10
51811;DHT22;52468;40.116;18.296;2023-07-09T09:06:50;33.10;38.10
51811;DHT22;52468;40.116;18.296;2023-07-09T09:09:40;33.20;38.30
51811;DHT22;52468;40.116;18.296;2023-07-09T09:12:12;33.30;38.50
51811;DHT22;52468;40.116;18.296;2023-07-09T09:14:43;33.20;38.00
51811;DHT22;52468;40.116;18.296;2023-07-09T09:17:18;33.30;38.30
51811;DHT22;52468;40.116;18.296;2023-07-09T09:19:55;33.30;38.40
51811;DHT22;52468;40.116;18.296;2023-07-09T09:22:30;33.60;38.50
51811;DHT22;52468;40.116;18.296;2023-07-09T09:27:36;33.80;39.60
51811;DHT22;52468;40.116;18.296;2023-07-09T09:30:16;33.80;38.90
51811;DHT22;52468;40.116;18.296;2023-07-09T09:32:58;33.60;38.70
51811;DHT22;52468;40.116;18.296;2023-07-09T09:35:38;33.50;38.60
51811;DHT22;52468;40.116;18.296;2023-07-09T09:38:21;33.50;39.50
51811;DHT22;52468;40.116;18.296;2023-07-09T09:40:49;33.70;38.90
51811;DHT22;52468;40.116;18.296;2023-07-09T09:43:19;33.60;38.60
51811;DHT22;52468;40.116;18.296;2023-07-09T09:45:49;33.90;39.40
51811;DHT22;52468;40.116;18.296;2023-07-09T09:48:27;34.10;39.10
51811;DHT22;52468;40.116;18.296;2023-07-09T09:50:57;34.00;38.90
51811;DHT22;52468;40.116;18.296;2023-07-09T09:53:30;33.90;39.20
51811;DHT22;52468;40.116;18.296;2023-07-09T09:56:05;33.80;39.30
51811;DHT22;52468;40.116;18.296;2023-07-09T09:58:34;33.90;39.60
51811;DHT22;52468;40.116;18.296;2023-07-09T10:01:02;34.00;40.30
51811;DHT22;52468;40.116;18.296;2023-07-09T10:03:37;34.10;40.10
51811;DHT22;52468;40.116;18.296;2023-07-09T10:11:23;34.00;39.40
51811;DHT22;52468;40.116;18.296;2023-07-09T10:13:57;34.10;39.20
51811;DHT22;52468;40.116;18.296;2023-07-09T10:16:35;34.20;39.20
51811;DHT22;52468;40.116;18.296;2023-07-09T10:19:17;34.00;38.70
51811;DHT22;52468;40.116;18.296;2023-07-09T10:21:55;34.00;38.70
51811;DHT22;52468;40.116;18.296;2023-07-09T10:24:51;34.10;39.10
51811;DHT22;52468;40.116;18.296;2023-07-09T10:27:37;34.20;37.70
51811;DHT22;52468;40.116;18.296;2023-07-09T10:33:22;34.40;37.90
51811;DHT22;52468;40.116;18.296;2023-07-09T10:38:48;34.60;37.80
51811;DHT22;52468;40.116;18.296;2023-07-09T10:41:18;34.60;36.90
51811;DHT22;52468;40.116;18.296;2023-07-09T10:44:23;34.60;37.90
51811;DHT22;52468;40.116;18.296;2023-07-09T10:46:59;34.50;37.80
51811;DHT22;52468;40.116;18.296;2023-07-09T10:49:37;34.50;38.40
51811;DHT22;52468;40.116;18.296;2023-07-09T10:52:22;34.50;39.20
51811;DHT22;52468;40.116;18.296;2023-07-09T10:55:16;34.60;38.50
51811;DHT22;52468;40.116;18.296;2023-07-09T10:58:03;34.50;37.40
51811;DHT22;52468;40.116;18.296;2023-07-09T11:00:41;34.70;37.70
51811;DHT22;52468;40.116;18.296;2023-07-09T11:03:16;34.50;38.00
51811;DHT22;52468;40.116;18.296;2023-07-09T11:05:46;34.60;37.90
51811;DHT22;52468;40.116;18.296;2023-07-09T11:08:22;34.80;38.10
51811;DHT22;52468;40.116;18.296;2023-07-09T11:11:00;34.90;37.80
51811;DHT22;52468;40.116;18.296;2023-07-09T11:13:46;35.00;37.80
51811;DHT22;52468;40.116;18.296;2023-07-09T11:16:37;35.10;37.90
51811;DHT22;52468;40.116;18.296;2023-07-09T11:19:13;35.10;37.00
51811;DHT22;52468;40.116;18.296;2023-07-09T11:22:06;35.10;36.50
51811;DHT22;52468;40.116;18.296;2023-07-09T11:24:50;35.00;37.10
51811;DHT22;52468;40.116;18.296;2023-07-09T11:30:03;35.00;38.30
51811;DHT22;52468;40.116;18.296;2023-07-09T11:32:47;35.00;37.80
51811;DHT22;52468;40.116;18.296;2023-07-09T11:35:25;35.10;37.70
51811;DHT22;52468;40.116;18.296;2023-07-09T11:37:54;35.10;37.70
51811;DHT22;52468;40.116;18.296;2023-07-09T11:40:23;35.20;37.50
51811;DHT22;52468;40.116;18.296;2023-07-09T11:45:35;35.30;36.30
51811;DHT22;52468;40.116;18.296;2023-07-09T11:48:25;35.10;36.40
51811;DHT22;52468;40.116;18.296;2023-07-09T11:50:55;35.00;36.70
51811;DHT22;52468;40.116;18.296;2023-07-09T11:53:47;34.80;36.70
51811;DHT22;52468;40.116;18.296;2023-07-09T11:56:19;34.80;37.40
51811;DHT22;52468;40.116;18.296;2023-07-09T11:58:52;34.90;37.10
51811;DHT22;52468;40.116;18.296;2023-07-09T12:01:23;35.10;36.20
51811;DHT22;52468;40.116;18.296;2023-07-09T12:03:51;35.10;35.30
51811;DHT22;52468;40.116;18.296;2023-07-09T12:06:26;35.20;35.80
51811;DHT22;52468;40.116;18.296;2023-07-09T12:08:55;35.30;35.00
51811;DHT22;52468;40.116;18.296;2023-07-09T12:11:33;35.50;34.60
51811;DHT22;52468;40.116;18.296;2023-07-09T12:14:16;35.60;34.80
51811;DHT22;52468;40.116;18.296;2023-07-09T12:16:49;35.70;34.10
51811;DHT22;52468;40.116;18.296;2023-07-09T12:19:20;35.70;33.80
51811;DHT22;52468;40.116;18.296;2023-07-09T12:21:51;35.40;34.70
51811;DHT22;52468;40.116;18.296;2023-07-09T12:24:38;35.50;34.40
51811;DHT22;52468;40.116;18.296;2023-07-09T12:27:25;35.70;34.20
51811;DHT22;52468;40.116;18.296;2023-07-09T12:29:56;35.70;33.60
51811;DHT22;52468;40.116;18.296;2023-07-09T12:32:24;35.90;33.80
51811;DHT22;52468;40.116;18.296;2023-07-09T12:34:55;36.10;33.20
51811;DHT22;52468;40.116;18.296;2023-07-09T12:37:25;36.40;33.00
51811;DHT22;52468;40.116;18.296;2023-07-09T12:39:55;36.60;32.80
51811;DHT22;52468;40.116;18.296;2023-07-09T12:42:35;37.00;33.00
51811;DHT22;52468;40.116;18.296;2023-07-09T12:45:04;37.50;32.50
51811;DHT22;52468;40.116;18.296;2023-07-09T12:47:33;37.50;32.00
51811;DHT22;52468;40.116;18.296;2023-07-09T12:50:35;37.90;31.30
51811;DHT22;52468;40.116;18.296;2023-07-09T12:53:11;38.50;29.70
51811;DHT22;52468;40.116;18.296;2023-07-09T12:55:41;39.30;28.80
51811;DHT22;52468;40.116;18.296;2023-07-09T12:58:24;40.30;27.80
51811;DHT22;52468;40.116;18.296;2023-07-09T13:00:54;41.00;27.10
51811;DHT22;52468;40.116;18.296;2023-07-09T13:03:28;41.30;26.10
51811;DHT22;52468;40.116;18.296;2023-07-09T13:08:30;41.80;25.90
51811;DHT22;52468;40.116;18.296;2023-07-09T13:11:00;42.20;25.70
51811;DHT22;52468;40.116;18.296;2023-07-09T13:13:28;41.70;26.60
51811;DHT22;52468;40.116;18.296;2023-07-09T13:16:01;42.00;26.10
51811;DHT22;52468;40.116;18.296;2023-07-09T13:18:29;42.30;25.00
51811;DHT22;52468;40.116;18.296;2023-07-09T13:20:59;42.10;25.10
51811;DHT22;52468;40.116;18.296;2023-07-09T13:23:29;41.90;25.20
51811;DHT22;52468;40.116;18.296;2023-07-09T13:25:59;42.00;25.40
51811;DHT22;52468;40.116;18.296;2023-07-09T13:28:31;42.80;25.60
51811;DHT22;52468;40.116;18.296;2023-07-09T13:33:36;42.20;26.50
51811;DHT22;52468;40.116;18.296;2023-07-09T13:36:06;42.40;26.20
51811;DHT22;52468;40.116;18.296;2023-07-09T13:38:34;42.30;25.60
51811;DHT22;52468;40.116;18.296;2023-07-09T13:41:15;42.10;25.80
51811;DHT22;52468;40.116;18.296;2023-07-09T13:43:45;42.00;26.20
51811;DHT22;52468;40.116;18.296;2023-07-09T13:46:14;41.40;26.10
51811;DHT22;52468;40.116;18.296;2023-07-09T13:48:43;41.40;26.20
51811;DHT22;52468;40.116;18.296;2023-07-09T13:53:45;42.40;25.00
51811;DHT22;52468;40.116;18.296;2023-07-09T13:56:13;42.10;25.40
51811;DHT22;52468;40.116;18.296;2023-07-09T13:58:41;42.20;25.00
51811;DHT22;52468;40.116;18.296;2023-07-09T14:01:13;42.10;24.70
51811;DHT22;52468;40.116;18.296;2023-07-09T14:03:41;42.10;24.50
51811;DHT22;52468;40.116;18.296;2023-07-09T14:06:14;42.70;23.90
51811;DHT22;52468;40.116;18.296;2023-07-09T14:08:42;42.70;24.20
51811;DHT22;52468;40.116;18.296;2023-07-09T14:11:16;42.40;24.40
51811;DHT22;52468;40.116;18.296;2023-07-09T14:13:44;41.80;24.60
51811;DHT22;52468;40.116;18.296;2023-07-09T14:16:13;42.30;24.70
51811;DHT22;52468;40.116;18.296;2023-07-09T14:18:42;42.50;24.40
51811;DHT22;52468;40.116;18.296;2023-07-09T14:21:18;42.40;24.90
51811;DHT22;52468;40.116;18.296;2023-07-09T14:23:48;42.00;25.20
51811;DHT22;52468;40.116;18.296;2023-07-09T14:26:16;42.40;24.70
51811;DHT22;52468;40.116;18.296;2023-07-09T14:28:44;42.90;24.90
51811;DHT22;52468;40.116;18.296;2023-07-09T14:31:28;43.20;24.10
51811;DHT22;52468;40.116;18.296;2023-07-09T14:36:41;42.30;25.10
51811;DHT22;52468;40.116;18.296;2023-07-09T14:39:10;42.30;25.20
51811;DHT22;52468;40.116;18.296;2023-07-09T14:41:38;43.00;24.40
51811;DHT22;52468;40.116;18.296;2023-07-09T14:44:26;43.00;23.40
51811;DHT22;52468;40.116;18.296;2023-07-09T14:46:56;43.20;23.90
51811;DHT22;52468;40.116;18.296;2023-07-09T14:49:26;42.60;24.60
51811;DHT22;52468;40.116;18.296;2023-07-09T14:51:55;41.80;25.20
51811;DHT22;52468;40.116;18.296;2023-07-09T14:54:30;41.70;25.30
51811;DHT22;52468;40.116;18.296;2023-07-09T14:56:58;41.00;25.50
51811;DHT22;52468;40.116;18.296;2023-07-09T14:59:26;40.80;25.80
51811;DHT22;52468;40.116;18.296;2023-07-09T15:01:54;40.80;24.90
51811;DHT22;52468;40.116;18.296;2023-07-09T15:04:29;40.90;26.00
51811;DHT22;52468;40.116;18.296;2023-07-09T15:06:58;41.00;24.40
51811;DHT22;52468;40.116;18.296;2023-07-09T15:09:28;41.00;24.80
51811;DHT22;52468;40.116;18.296;2023-07-09T15:11:59;41.80;23.90
51811;DHT22;52468;40.116;18.296;2023-07-09T15:14:27;42.10;22.40
51811;DHT22;52468;40.116;18.296;2023-07-09T15:16:55;42.60;22.40
51811;DHT22;52468;40.116;18.296;2023-07-09T15:19:25;42.40;22.40
51811;DHT22;52468;40.116;18.296;2023-07-09T15:21:53;42.00;22.00
51811;DHT22;52468;40.116;18.296;2023-07-09T15:24:22;42.10;22.30
51811;DHT22;52468;40.116;18.296;2023-07-09T15:26:53;42.60;22.10
51811;DHT22;52468;40.116;18.296;2023-07-09T15:29:22;41.70;22.40
51811;DHT22;52468;40.116;18.296;2023-07-09T15:31:50;41.90;23.20
51811;DHT22;52468;40.116;18.296;2023-07-09T15:34:18;42.10;23.00
51811;DHT22;52468;40.116;18.296;2023-07-09T15:36:48;42.10;22.50
51811;DHT22;52468;40.116;18.296;2023-07-09T15:39:18;42.10;22.60
51811;DHT22;52468;40.116;18.296;2023-07-09T15:41:46;42.20;22.60
51811;DHT22;52468;40.116;18.296;2023-07-09T15:44:17;42.50;22.90
51811;DHT22;52468;40.116;18.296;2023-07-09T15:46:55;42.50;22.90
51811;DHT22;52468;40.116;18.296;2023-07-09T15:49:24;42.90;21.50
51811;DHT22;52468;40.116;18.296;2023-07-09T15:51:52;42.70;22.60
51811;DHT22;52468;40.116;18.296;2023-07-09T15:54:24;42.40;23.60
51811;DHT22;52468;40.116;18.296;2023-07-09T15:56:53;41.90;24.30
51811;DHT22;52468;40.116;18.296;2023-07-09T15:59:31;41.20;24.80
51811;DHT22;52468;40.116;18.296;2023-07-09T16:02:01;40.80;25.10
51811;DHT22;52468;40.116;18.296;2023-07-09T16:04:30;40.90;24.80
51811;DHT22;52468;40.116;18.296;2023-07-09T16:06:57;41.50;24.20
51811;DHT22;52468;40.116;18.296;2023-07-09T16:09:25;41.50;24.90
51811;DHT22;52468;40.116;18.296;2023-07-09T16:11:54;41.40;25.50
51811;DHT22;52468;40.116;18.296;2023-07-09T16:14:31;41.40;26.00
51811;DHT22;52468;40.116;18.296;2023-07-09T16:17:01;41.20;26.40
51811;DHT22;52468;40.116;18.296;2023-07-09T16:19:32;41.20;26.20
51811;DHT22;52468;40.116;18.296;2023-07-09T16:22:02;41.20;26.30
51811;DHT22;52468;40.116;18.296;2023-07-09T16:24:33;40.50;25.40
51811;DHT22;52468;40.116;18.296;2023-07-09T16:27:02;40.00;25.30
51811;DHT22;52468;40.116;18.296;2023-07-09T16:29:33;39.80;25.40